sensor_id;sensor_type;location;lat;lon;timestamp;temperature;humidity
46091;DHT22;31826;53.572;10.170;2023-03-01T00:01:30;-0.40;99.90
46091;DHT22;31826;53.572;10.170;2023-03-01T00:03:57;-0.30;99.90
46091;DHT22;31826;53.572;10.170;2023-03-01T00:06:24;-0.30;99.90
46091;DHT22;31826;53.572;10.170;2023-03-01T00:08:50;-0.30;99.90
46091;DHT22;31826;53.572;10.170;2023-03-01T00:11:19;-0.30;99.90
46091;DHT22;31826;53.572;10.170;2023-03-01T00:13:46;-0.30;99.90
46091;DHT22;31826;53.572;10.170;2023-03-01T00:16:16;-0.30;99.90
46091;DHT22;31826;53.572;10.170;2023-03-01T00:18:42;-0.40;99.90
46091;DHT22;31826;53.572;10.170;2023-03-01T00:21:08;-0.40;99.90
46091;DHT22;31826;53.572;10.170;2023-03-01T00:23:34;-0.50;99.90
46091;DHT22;31826;53.572;10.170;2023-03-01T00:26:00;-0.60;99.90
46091;DHT22;31826;53.572;10.170;2023-03-01T00:28:26;-0.60;99.90
46091;DHT22;31826;53.572;10.170;2023-03-01T00:30:51;-0.50;99.90
46091;DHT22;31826;53.572;10.170;2023-03-01T00:33:18;-0.60;99.90
46091;DHT22;31826;53.572;10.170;2023-03-01T00:35:43;-0.50;99.90
46091;DHT22;31826;53.572;10.170;2023-03-01T00:38:10;-0.60;99.90
46091;DHT22;31826;53.572;10.170;2023-03-01T00:40:36;-0.70;99.90
46091;DHT22;31826;53.572;10.170;2023-03-01T00:43:03;-0.70;99.90
46091;DHT22;31826;53.572;10.170;2023-03-01T00:45:29;-0.70;99.90
46091;DHT22;31826;53.572;10.170;2023-03-01T00:47:56;-0.70;99.90
46091;DHT22;31826;53.572;10.170;2023-03-01T00:50:23;-0.80;99.90
46091;DHT22;31826;53.572;10.170;2023-03-01T00:52:54;-0.90;99.90
46091;DHT22;31826;53.572;10.170;2023-03-01T00:55:20;-1.00;99.90
46091;DHT22;31826;53.572;10.170;2023-03-01T00:57:45;-1.20;99.90
46091;DHT22;31826;53.572;10.170;2023-03-01T01:00:11;-1.30;99.90
46091;DHT22;31826;53.572;10.170;2023-03-01T01:02:37;-1.30;99.90
46091;DHT22;31826;53.572;10.170;2023-03-01T01:05:04;-1.10;99.90
46091;DHT22;31826;53.572;10.170;2023-03-01T01:07:30;-1.00;99.90
46091;DHT22;31826;53.572;10.170;2023-03-01T01:09:55;-1.00;99.90
46091;DHT22;31826;53.572;10.170;2023-03-01T01:12:21;-0.90;99.90
46091;DHT22;31826;53.572;10.170;2023-03-01T01:14:47;-0.90;99.90
46091;DHT22;31826;53.572;10.170;2023-03-01T01:17:13;-0.70;99.90
46091;DHT22;31826;53.572;10.170;2023-03-01T01:19:39;-0.80;99.90
46091;DHT22;31826;53.572;10.170;2023-03-01T01:22:04;-0.80;99.90
46091;DHT22;31826;53.572;10.170;2023-03-01T01:24:30;-0.70;99.90
46091;DHT22;31826;53.572;10.170;2023-03-01T01:26:56;-0.80;99.90
46091;DHT22;31826;53.572;10.170;2023-03-01T01:29:22;-0.80;99.90
46091;DHT22;31826;53.572;10.170;2023-03-01T01:31:48;-0.80;99.90
46091;DHT22;31826;53.572;10.170;2023-03-01T01:34:20;-0.80;99.90
46091;DHT22;31826;53.572;10.170;2023-03-01T01:36:50;-0.90;99.90
46091;DHT22;31826;53.572;10.170;2023-03-01T01:39:19;-0.80;99.90
46091;DHT22;31826;53.572;10.170;2023-03-01T01:41:45;-0.80;99.90
46091;DHT22;31826;53.572;10.170;2023-03-01T01:44:20;-0.90;99.90
46091;DHT22;31826;53.572;10.170;2023-03-01T01:46:54;-1.00;99.90
46091;DHT22;31826;53.572;10.170;2023-03-01T01:52:06;-1.10;99.90
46091;DHT22;31826;53.572;10.170;2023-03-01T01:54:50;-1.10;99.90
46091;DHT22;31826;53.572;10.170;2023-03-01T01:57:25;-1.30;99.90
46091;DHT22;31826;53.572;10.170;2023-03-01T01:59:55;-1.30;99.90
46091;DHT22;31826;53.572;10.170;2023-03-01T02:02:23;-1.30;99.90
46091;DHT22;31826;53.572;10.170;2023-03-01T02:04:51;-1.20;99.90
46091;DHT22;31826;53.572;10.170;2023-03-01T02:07:21;-1.10;99.90
46091;DHT22;31826;53.572;10.170;2023-03-01T02:09:49;-1.10;99.90
46091;DHT22;31826;53.572;10.170;2023-03-01T02:12:18;-0.90;99.90
46091;DHT22;31826;53.572;10.170;2023-03-01T02:14:45;-0.90;99.90
46091;DHT22;31826;53.572;10.170;2023-03-01T02:17:12;-0.90;99.90
46091;DHT22;31826;53.572;10.170;2023-03-01T02:22:30;-0.80;99.90
46091;DHT22;31826;53.572;10.170;2023-03-01T02:28:08;-1.10;99.90
46091;DHT22;31826;53.572;10.170;2023-03-01T02:30:36;-1.20;99.90
46091;DHT22;31826;53.572;10.170;2023-03-01T02:33:03;-1.20;99.90
46091;DHT22;31826;53.572;10.170;2023-03-01T02:35:32;-1.10;99.90
46091;DHT22;31826;53.572;10.170;2023-03-01T02:38:00;-1.00;99.90
46091;DHT22;31826;53.572;10.170;2023-03-01T02:40:28;-1.10;99.90
46091;DHT22;31826;53.572;10.170;2023-03-01T02:42:58;-1.00;99.90
46091;DHT22;31826;53.572;10.170;2023-03-01T02:45:24;-1.00;99.90
46091;DHT22;31826;53.572;10.170;2023-03-01T02:47:54;-1.10;99.90
46091;DHT22;31826;53.572;10.170;2023-03-01T02:50:52;-0.90;99.90
46091;DHT22;31826;53.572;10.170;2023-03-01T02:53:39;-0.90;99.90
46091;DHT22;31826;53.572;10.170;2023-03-01T02:56:07;-0.90;99.90
46091;DHT22;31826;53.572;10.170;2023-03-01T02:58:40;-0.80;99.90
46091;DHT22;31826;53.572;10.170;2023-03-01T03:01:12;-0.90;99.90
46091;DHT22;31826;53.572;10.170;2023-03-01T03:03:40;-0.80;99.90
46091;DHT22;31826;53.572;10.170;2023-03-01T03:06:06;-0.90;99.90
46091;DHT22;31826;53.572;10.170;2023-03-01T03:08:32;-0.90;99.90
46091;DHT22;31826;53.572;10.170;2023-03-01T03:10:58;-1.10;99.90
46091;DHT22;31826;53.572;10.170;2023-03-01T03:13:23;-1.30;99.90
46091;DHT22;31826;53.572;10.170;2023-03-01T03:15:54;-1.30;99.90
46091;DHT22;31826;53.572;10.170;2023-03-01T03:18:21;-1.30;99.90
46091;DHT22;31826;53.572;10.170;2023-03-01T03:20:48;-1.40;99.90
46091;DHT22;31826;53.572;10.170;2023-03-01T03:23:21;-1.30;99.90
46091;DHT22;31826;53.572;10.170;2023-03-01T03:25:50;-1.30;99.90
46091;DHT22;31826;53.572;10.170;2023-03-01T03:28:18;-1.30;99.90
46091;DHT22;31826;53.572;10.170;2023-03-01T03:30:44;-1.30;99.90
46091;DHT22;31826;53.572;10.170;2023-03-01T03:33:11;-1.30;99.90
46091;DHT22;31826;53.572;10.170;2023-03-01T03:35:47;-1.30;99.90
46091;DHT22;31826;53.572;10.170;2023-03-01T03:38:14;-1.30;99.90
46091;DHT22;31826;53.572;10.170;2023-03-01T03:43:19;-1.10;99.90
46091;DHT22;31826;53.572;10.170;2023-03-01T03:45:46;-1.00;99.90
46091;DHT22;31826;53.572;10.170;2023-03-01T03:48:12;-1.00;99.90
46091;DHT22;31826;53.572;10.170;2023-03-01T03:50:39;-0.90;99.90
46091;DHT22;31826;53.572;10.170;2023-03-01T03:53:10;-0.80;99.90
46091;DHT22;31826;53.572;10.170;2023-03-01T03:55:37;-0.80;99.90
46091;DHT22;31826;53.572;10.170;2023-03-01T03:58:06;-0.80;99.90
46091;DHT22;31826;53.572;10.170;2023-03-01T04:00:33;-0.70;99.90
46091;DHT22;31826;53.572;10.170;2023-03-01T04:03:00;-0.60;99.90
46091;DHT22;31826;53.572;10.170;2023-03-01T04:05:26;-0.60;99.90
46091;DHT22;31826;53.572;10.170;2023-03-01T04:07:52;-0.50;99.90
46091;DHT22;31826;53.572;10.170;2023-03-01T04:10:27;-0.40;99.90
46091;DHT22;31826;53.572;10.170;2023-03-01T04:12:53;-0.30;99.90
46091;DHT22;31826;53.572;10.170;2023-03-01T04:15:22;-0.30;99.90
46091;DHT22;31826;53.572;10.170;2023-03-01T04:17:50;-0.30;99.90
46091;DHT22;31826;53.572;10.170;2023-03-01T04:20:20;-0.20;99.90
46091;DHT22;31826;53.572;10.170;2023-03-01T04:22:57;-0.20;99.90
46091;DHT22;31826;53.572;10.170;2023-03-01T04:25:23;-0.10;99.90
46091;DHT22;31826;53.572;10.170;2023-03-01T04:27:49;0.00;99.90
46091;DHT22;31826;53.572;10.170;2023-03-01T04:30:15;0.00;99.90
46091;DHT22;31826;53.572;10.170;2023-03-01T04:32:41;0.00;99.90
46091;DHT22;31826;53.572;10.170;2023-03-01T04:35:07;-0.10;99.90
46091;DHT22;31826;53.572;10.170;2023-03-01T04:37:34;-0.10;99.90
46091;DHT22;31826;53.572;10.170;2023-03-01T04:40:02;0.10;99.90
46091;DHT22;31826;53.572;10.170;2023-03-01T04:42:40;0.00;99.90
46091;DHT22;31826;53.572;10.170;2023-03-01T04:45:08;0.00;99.90
46091;DHT22;31826;53.572;10.170;2023-03-01T04:47:47;0.00;99.90
46091;DHT22;31826;53.572;10.170;2023-03-01T04:50:15;0.00;99.90
46091;DHT22;31826;53.572;10.170;2023-03-01T04:52:43;0.00;99.90
46091;DHT22;31826;53.572;10.170;2023-03-01T04:55:09;0.10;99.90
46091;DHT22;31826;53.572;10.170;2023-03-01T04:57:35;0.10;99.90
46091;DHT22;31826;53.572;10.170;2023-03-01T05:00:02;0.20;99.90
46091;DHT22;31826;53.572;10.170;2023-03-01T05:02:59;0.20;99.90
46091;DHT22;31826;53.572;10.170;2023-03-01T05:05:45;0.20;99.90
46091;DHT22;31826;53.572;10.170;2023-03-01T05:08:12;0.30;99.90
46091;DHT22;31826;53.572;10.170;2023-03-01T05:10:48;0.40;99.90
46091;DHT22;31826;53.572;10.170;2023-03-01T05:13:14;0.40;99.90
46091;DHT22;31826;53.572;10.170;2023-03-01T05:15:53;0.40;99.90
46091;DHT22;31826;53.572;10.170;2023-03-01T05:18:19;0.50;99.90
46091;DHT22;31826;53.572;10.170;2023-03-01T05:20:45;0.50;99.90
46091;DHT22;31826;53.572;10.170;2023-03-01T05:23:10;0.50;99.90
46091;DHT22;31826;53.572;10.170;2023-03-01T05:25:36;0.50;99.90
46091;DHT22;31826;53.572;10.170;2023-03-01T05:28:07;0.50;99.90
46091;DHT22;31826;53.572;10.170;2023-03-01T05:30:35;0.50;99.90
46091;DHT22;31826;53.572;10.170;2023-03-01T05:33:01;0.60;99.90
46091;DHT22;31826;53.572;10.170;2023-03-01T05:35:27;0.50;99.90
46091;DHT22;31826;53.572;10.170;2023-03-01T05:37:54;0.60;99.90
46091;DHT22;31826;53.572;10.170;2023-03-01T05:40:22;0.60;99.90
46091;DHT22;31826;53.572;10.170;2023-03-01T05:42:55;0.60;99.90
46091;DHT22;31826;53.572;10.170;2023-03-01T05:45:23;0.60;99.90
46091;DHT22;31826;53.572;10.170;2023-03-01T05:47:50;0.60;99.90
46091;DHT22;31826;53.572;10.170;2023-03-01T05:50:20;0.70;99.90
46091;DHT22;31826;53.572;10.170;2023-03-01T05:53:02;0.70;99.90
46091;DHT22;31826;53.572;10.170;2023-03-01T05:55:29;0.60;99.90
46091;DHT22;31826;53.572;10.170;2023-03-01T05:57:58;0.60;99.90
46091;DHT22;31826;53.572;10.170;2023-03-01T06:00:25;0.70;99.90
46091;DHT22;31826;53.572;10.170;2023-03-01T06:02:51;0.70;99.90
46091;DHT22;31826;53.572;10.170;2023-03-01T06:05:19;0.70;99.90
46091;DHT22;31826;53.572;10.170;2023-03-01T06:07:45;0.60;99.90
46091;DHT22;31826;53.572;10.170;2023-03-01T06:10:12;0.60;99.90
46091;DHT22;31826;53.572;10.170;2023-03-01T06:12:39;0.70;99.90
46091;DHT22;31826;53.572;10.170;2023-03-01T06:15:06;0.70;99.90
46091;DHT22;31826;53.572;10.170;2023-03-01T06:17:34;0.70;99.90
46091;DHT22;31826;53.572;10.170;2023-03-01T06:20:04;0.70;99.90
46091;DHT22;31826;53.572;10.170;2023-03-01T06:22:31;0.70;99.90
46091;DHT22;31826;53.572;10.170;2023-03-01T06:24:56;0.70;99.90
46091;DHT22;31826;53.572;10.170;2023-03-01T06:27:22;0.70;99.90
46091;DHT22;31826;53.572;10.170;2023-03-01T06:29:48;0.70;99.90
46091;DHT22;31826;53.572;10.170;2023-03-01T06:32:14;0.70;99.90
46091;DHT22;31826;53.572;10.170;2023-03-01T06:34:40;0.80;99.90
46091;DHT22;31826;53.572;10.170;2023-03-01T06:37:06;0.80;99.90
46091;DHT22;31826;53.572;10.170;2023-03-01T06:39:33;0.70;99.90
46091;DHT22;31826;53.572;10.170;2023-03-01T06:41:59;0.70;99.90
46091;DHT22;31826;53.572;10.170;2023-03-01T06:44:25;0.80;99.90
46091;DHT22;31826;53.572;10.170;2023-03-01T06:46:51;0.80;99.90
46091;DHT22;31826;53.572;10.170;2023-03-01T06:49:16;0.90;99.90
46091;DHT22;31826;53.572;10.170;2023-03-01T06:51:44;1.00;99.90
46091;DHT22;31826;53.572;10.170;2023-03-01T06:54:10;1.00;99.90
46091;DHT22;31826;53.572;10.170;2023-03-01T06:56:36;1.00;99.90
46091;DHT22;31826;53.572;10.170;2023-03-01T06:59:02;1.20;99.90
46091;DHT22;31826;53.572;10.170;2023-03-01T07:01:29;1.20;99.90
46091;DHT22;31826;53.572;10.170;2023-03-01T07:03:54;1.20;99.90
46091;DHT22;31826;53.572;10.170;2023-03-01T07:06:22;1.20;99.90
46091;DHT22;31826;53.572;10.170;2023-03-01T07:08:48;1.30;99.90
46091;DHT22;31826;53.572;10.170;2023-03-01T07:11:14;1.40;99.90
46091;DHT22;31826;53.572;10.170;2023-03-01T07:13:40;1.40;99.90
46091;DHT22;31826;53.572;10.170;2023-03-01T07:16:06;1.40;99.90
46091;DHT22;31826;53.572;10.170;2023-03-01T07:18:32;1.50;99.90
46091;DHT22;31826;53.572;10.170;2023-03-01T07:20:58;1.50;99.90
46091;DHT22;31826;53.572;10.170;2023-03-01T07:23:23;1.60;99.90
46091;DHT22;31826;53.572;10.170;2023-03-01T07:25:54;1.60;99.90
46091;DHT22;31826;53.572;10.170;2023-03-01T07:28:20;1.70;99.90
46091;DHT22;31826;53.572;10.170;2023-03-01T07:30:46;1.70;99.90
46091;DHT22;31826;53.572;10.170;2023-03-01T07:33:11;1.70;99.90
46091;DHT22;31826;53.572;10.170;2023-03-01T07:35:37;1.80;99.90
46091;DHT22;31826;53.572;10.170;2023-03-01T07:38:03;1.80;99.90
46091;DHT22;31826;53.572;10.170;2023-03-01T07:40:28;1.90;99.90
46091;DHT22;31826;53.572;10.170;2023-03-01T07:42:58;1.90;99.90
46091;DHT22;31826;53.572;10.170;2023-03-01T07:45:28;2.00;99.90
46091;DHT22;31826;53.572;10.170;2023-03-01T07:47:55;2.00;99.90
46091;DHT22;31826;53.572;10.170;2023-03-01T07:50:21;2.10;99.90
46091;DHT22;31826;53.572;10.170;2023-03-01T07:52:49;2.20;99.90
46091;DHT22;31826;53.572;10.170;2023-03-01T07:55:16;2.30;99.90
46091;DHT22;31826;53.572;10.170;2023-03-01T07:57:42;2.40;99.90
46091;DHT22;31826;53.572;10.170;2023-03-01T08:00:10;2.40;99.90
46091;DHT22;31826;53.572;10.170;2023-03-01T08:02:36;2.50;99.90
46091;DHT22;31826;53.572;10.170;2023-03-01T08:05:02;2.50;99.90
46091;DHT22;31826;53.572;10.170;2023-03-01T08:07:28;2.60;99.90
46091;DHT22;31826;53.572;10.170;2023-03-01T08:09:54;2.60;99.90
46091;DHT22;31826;53.572;10.170;2023-03-01T08:12:19;2.70;99.90
46091;DHT22;31826;53.572;10.170;2023-03-01T08:14:45;2.70;99.90
46091;DHT22;31826;53.572;10.170;2023-03-01T08:17:13;2.70;99.90
46091;DHT22;31826;53.572;10.170;2023-03-01T08:19:39;2.80;99.90
46091;DHT22;31826;53.572;10.170;2023-03-01T08:22:05;2.90;99.90
46091;DHT22;31826;53.572;10.170;2023-03-01T08:24:31;2.90;99.90
46091;DHT22;31826;53.572;10.170;2023-03-01T08:26:57;3.10;99.90
46091;DHT22;31826;53.572;10.170;2023-03-01T08:29:23;3.20;99.90
46091;DHT22;31826;53.572;10.170;2023-03-01T08:31:51;3.20;99.90
46091;DHT22;31826;53.572;10.170;2023-03-01T08:34:18;3.20;99.90
46091;DHT22;31826;53.572;10.170;2023-03-01T08:36:45;3.20;99.90
46091;DHT22;31826;53.572;10.170;2023-03-01T08:39:13;3.30;99.90
46091;DHT22;31826;53.572;10.170;2023-03-01T08:41:40;3.30;99.90
46091;DHT22;31826;53.572;10.170;2023-03-01T08:44:06;3.40;99.90
46091;DHT22;31826;53.572;10.170;2023-03-01T08:46:34;3.50;99.90
46091;DHT22;31826;53.572;10.170;2023-03-01T08:49:08;3.70;99.90
46091;DHT22;31826;53.572;10.170;2023-03-01T08:51:34;3.80;99.90
46091;DHT22;31826;53.572;10.170;2023-03-01T08:54:24;4.00;99.90
46091;DHT22;31826;53.572;10.170;2023-03-01T08:56:50;4.00;99.90
46091;DHT22;31826;53.572;10.170;2023-03-01T08:59:17;4.20;99.90
46091;DHT22;31826;53.572;10.170;2023-03-01T09:01:43;4.20;99.90
46091;DHT22;31826;53.572;10.170;2023-03-01T09:04:09;4.30;99.90
46091;DHT22;31826;53.572;10.170;2023-03-01T09:06:36;4.40;99.90
46091;DHT22;31826;53.572;10.170;2023-03-01T09:09:03;4.40;99.90
46091;DHT22;31826;53.572;10.170;2023-03-01T09:11:29;4.60;99.90
46091;DHT22;31826;53.572;10.170;2023-03-01T09:13:57;4.70;99.90
46091;DHT22;31826;53.572;10.170;2023-03-01T09:16:23;4.70;99.90
46091;DHT22;31826;53.572;10.170;2023-03-01T09:18:51;4.80;99.90
46091;DHT22;31826;53.572;10.170;2023-03-01T09:21:18;4.90;99.90
46091;DHT22;31826;53.572;10.170;2023-03-01T09:23:46;5.00;99.90
46091;DHT22;31826;53.572;10.170;2023-03-01T09:26:17;5.10;99.90
46091;DHT22;31826;53.572;10.170;2023-03-01T09:28:49;5.30;99.90
46091;DHT22;31826;53.572;10.170;2023-03-01T09:31:17;5.40;99.90
46091;DHT22;31826;53.572;10.170;2023-03-01T09:33:46;5.50;99.90
46091;DHT22;31826;53.572;10.170;2023-03-01T09:36:16;5.40;99.90
46091;DHT22;31826;53.572;10.170;2023-03-01T09:38:42;5.60;99.90
46091;DHT22;31826;53.572;10.170;2023-03-01T09:43:51;5.70;99.90
46091;DHT22;31826;53.572;10.170;2023-03-01T09:46:22;5.90;99.90
46091;DHT22;31826;53.572;10.170;2023-03-01T09:48:59;6.20;99.90
46091;DHT22;31826;53.572;10.170;2023-03-01T09:51:32;6.40;99.90
46091;DHT22;31826;53.572;10.170;2023-03-01T09:53:58;6.60;99.90
46091;DHT22;31826;53.572;10.170;2023-03-01T09:56:33;6.80;99.90
46091;DHT22;31826;53.572;10.170;2023-03-01T10:04:23;8.10;99.90
46091;DHT22;31826;53.572;10.170;2023-03-01T10:09:44;8.70;99.90
46091;DHT22;31826;53.572;10.170;2023-03-01T10:12:17;9.00;99.90
46091;DHT22;31826;53.572;10.170;2023-03-01T10:19:47;10.20;99.90
46091;DHT22;31826;53.572;10.170;2023-03-01T10:22:28;10.60;99.90
46091;DHT22;31826;53.572;10.170;2023-03-01T10:24:56;11.00;99.00
46091;DHT22;31826;53.572;10.170;2023-03-01T10:27:24;11.40;97.90
46091;DHT22;31826;53.572;10.170;2023-03-01T10:32:32;11.40;96.00
46091;DHT22;31826;53.572;10.170;2023-03-01T10:34:58;11.70;97.20
46091;DHT22;31826;53.572;10.170;2023-03-01T10:37:24;11.40;96.20
46091;DHT22;31826;53.572;10.170;2023-03-01T10:40:06;11.30;96.50
46091;DHT22;31826;53.572;10.170;2023-03-01T10:42:41;11.40;96.90
46091;DHT22;31826;53.572;10.170;2023-03-01T10:45:26;11.30;97.00
46091;DHT22;31826;53.572;10.170;2023-03-01T10:48:18;11.30;97.00
46091;DHT22;31826;53.572;10.170;2023-03-01T10:50:49;11.40;96.70
46091;DHT22;31826;53.572;10.170;2023-03-01T10:53:36;11.40;97.10
46091;DHT22;31826;53.572;10.170;2023-03-01T10:56:09;11.40;96.70
46091;DHT22;31826;53.572;10.170;2023-03-01T10:58:37;11.50;97.20
46091;DHT22;31826;53.572;10.170;2023-03-01T11:01:28;11.40;96.60
46091;DHT22;31826;53.572;10.170;2023-03-01T11:04:13;11.60;96.40
46091;DHT22;31826;53.572;10.170;2023-03-01T11:06:40;11.80;96.70
46091;DHT22;31826;53.572;10.170;2023-03-01T11:09:19;12.10;96.10
46091;DHT22;31826;53.572;10.170;2023-03-01T11:11:46;12.50;95.90
46091;DHT22;31826;53.572;10.170;2023-03-01T11:14:21;12.70;95.30
46091;DHT22;31826;53.572;10.170;2023-03-01T11:16:57;13.10;95.20
46091;DHT22;31826;53.572;10.170;2023-03-01T11:19:23;13.50;94.80
46091;DHT22;31826;53.572;10.170;2023-03-01T11:22:02;14.00;94.30
46091;DHT22;31826;53.572;10.170;2023-03-01T11:24:49;14.00;93.50
46091;DHT22;31826;53.572;10.170;2023-03-01T11:27:24;14.40;93.60
46091;DHT22;31826;53.572;10.170;2023-03-01T11:30:04;14.70;92.30
46091;DHT22;31826;53.572;10.170;2023-03-01T11:32:50;14.80;92.10
46091;DHT22;31826;53.572;10.170;2023-03-01T11:35:22;14.30;92.10
46091;DHT22;31826;53.572;10.170;2023-03-01T11:38:19;14.60;92.50
46091;DHT22;31826;53.572;10.170;2023-03-01T11:41:14;15.00;92.10
46091;DHT22;31826;53.572;10.170;2023-03-01T11:43:49;15.70;91.70
46091;DHT22;31826;53.572;10.170;2023-03-01T11:49:24;15.80;89.80
46091;DHT22;31826;53.572;10.170;2023-03-01T12:06:17;15.40;90.50
46091;DHT22;31826;53.572;10.170;2023-03-01T12:08:59;15.80;90.00
46091;DHT22;31826;53.572;10.170;2023-03-01T12:14:28;16.40;89.50
46091;DHT22;31826;53.572;10.170;2023-03-01T12:46:59;17.60;83.00
46091;DHT22;31826;53.572;10.170;2023-03-01T12:49:36;17.90;83.00
46091;DHT22;31826;53.572;10.170;2023-03-01T12:54:41;17.70;82.60
46091;DHT22;31826;53.572;10.170;2023-03-01T12:57:28;17.80;82.00
46091;DHT22;31826;53.572;10.170;2023-03-01T13:03:21;17.70;82.30
46091;DHT22;31826;53.572;10.170;2023-03-01T13:09:15;17.60;81.20
46091;DHT22;31826;53.572;10.170;2023-03-01T13:11:21;17.70;81.00
46091;DHT22;31826;53.572;10.170;2023-03-01T13:13:47;16.90;81.70
46091;DHT22;31826;53.572;10.170;2023-03-01T13:19:23;15.40;85.80
46091;DHT22;31826;53.572;10.170;2023-03-01T13:21:51;14.30;87.80
46091;DHT22;31826;53.572;10.170;2023-03-01T13:29:50;12.90;91.80
46091;DHT22;31826;53.572;10.170;2023-03-01T13:32:23;12.50;91.90
46091;DHT22;31826;53.572;10.170;2023-03-01T13:34:51;11.90;92.20
46091;DHT22;31826;53.572;10.170;2023-03-01T13:37:37;11.60;92.30
46091;DHT22;31826;53.572;10.170;2023-03-01T13:42:51;11.00;92.60
46091;DHT22;31826;53.572;10.170;2023-03-01T13:45:40;10.90;94.20
46091;DHT22;31826;53.572;10.170;2023-03-01T13:48:29;10.90;93.50
46091;DHT22;31826;53.572;10.170;2023-03-01T13:51:03;10.90;93.60
46091;DHT22;31826;53.572;10.170;2023-03-01T13:53:35;10.70;93.40
46091;DHT22;31826;53.572;10.170;2023-03-01T13:56:12;10.70;94.40
46091;DHT22;31826;53.572;10.170;2023-03-01T14:01:27;10.60;93.60
46091;DHT22;31826;53.572;10.170;2023-03-01T14:03:53;10.50;94.00
46091;DHT22;31826;53.572;10.170;2023-03-01T14:06:25;10.30;94.10
46091;DHT22;31826;53.572;10.170;2023-03-01T14:20:24;9.50;94.60
46091;DHT22;31826;53.572;10.170;2023-03-01T14:22:57;9.50;94.40
46091;DHT22;31826;53.572;10.170;2023-03-01T14:25:32;9.40;94.20
46091;DHT22;31826;53.572;10.170;2023-03-01T14:28:00;9.40;94.40
46091;DHT22;31826;53.572;10.170;2023-03-01T14:30:34;9.20;94.00
46091;DHT22;31826;53.572;10.170;2023-03-01T14:33:03;9.20;94.10
46091;DHT22;31826;53.572;10.170;2023-03-01T14:35:35;9.20;94.40
46091;DHT22;31826;53.572;10.170;2023-03-01T14:38:02;9.30;94.90
46091;DHT22;31826;53.572;10.170;2023-03-01T14:40:32;9.20;94.80
46091;DHT22;31826;53.572;10.170;2023-03-01T14:43:00;9.10;95.30
46091;DHT22;31826;53.572;10.170;2023-03-01T14:45:29;9.10;95.30
46091;DHT22;31826;53.572;10.170;2023-03-01T14:48:01;8.90;94.80
46091;DHT22;31826;53.572;10.170;2023-03-01T14:50:35;8.90;94.70
46091;DHT22;31826;53.572;10.170;2023-03-01T14:53:05;8.70;95.50
46091;DHT22;31826;53.572;10.170;2023-03-01T14:55:37;8.80;95.30
46091;DHT22;31826;53.572;10.170;2023-03-01T14:58:05;8.70;95.30
46091;DHT22;31826;53.572;10.170;2023-03-01T15:00:35;8.70;95.90
46091;DHT22;31826;53.572;10.170;2023-03-01T15:03:52;8.70;95.60
46091;DHT22;31826;53.572;10.170;2023-03-01T15:05:53;8.70;95.40
46091;DHT22;31826;53.572;10.170;2023-03-01T15:08:24;8.60;95.80
46091;DHT22;31826;53.572;10.170;2023-03-01T15:11:15;8.60;95.70
46091;DHT22;31826;53.572;10.170;2023-03-01T15:13:41;8.50;96.00
46091;DHT22;31826;53.572;10.170;2023-03-01T15:16:19;8.60;96.00
46091;DHT22;31826;53.572;10.170;2023-03-01T15:18:52;8.50;95.90
46091;DHT22;31826;53.572;10.170;2023-03-01T15:21:36;8.50;96.20
46091;DHT22;31826;53.572;10.170;2023-03-01T15:24:17;8.40;96.20
46091;DHT22;31826;53.572;10.170;2023-03-01T15:29:22;8.30;96.80
46091;DHT22;31826;53.572;10.170;2023-03-01T15:34:29;8.30;96.70
46091;DHT22;31826;53.572;10.170;2023-03-01T15:36:57;8.20;97.00
46091;DHT22;31826;53.572;10.170;2023-03-01T15:41:57;8.20;97.10
46091;DHT22;31826;53.572;10.170;2023-03-01T15:44:31;8.10;97.40
46091;DHT22;31826;53.572;10.170;2023-03-01T15:46:57;8.10;97.80
46091;DHT22;31826;53.572;10.170;2023-03-01T15:49:42;8.00;98.00
46091;DHT22;31826;53.572;10.170;2023-03-01T15:52:22;8.00;97.20
46091;DHT22;31826;53.572;10.170;2023-03-01T15:55:00;7.80;97.70
46091;DHT22;31826;53.572;10.170;2023-03-01T15:57:26;7.80;97.90
46091;DHT22;31826;53.572;10.170;2023-03-01T15:59:52;7.70;97.90
46091;DHT22;31826;53.572;10.170;2023-03-01T16:02:18;7.70;98.00
46091;DHT22;31826;53.572;10.170;2023-03-01T16:04:46;7.70;98.40
46091;DHT22;31826;53.572;10.170;2023-03-01T16:07:14;7.60;98.50
46091;DHT22;31826;53.572;10.170;2023-03-01T16:09:39;7.60;98.40
46091;DHT22;31826;53.572;10.170;2023-03-01T16:12:08;7.50;98.40
46091;DHT22;31826;53.572;10.170;2023-03-01T16:14:38;7.50;98.50
46091;DHT22;31826;53.572;10.170;2023-03-01T16:17:03;7.40;98.80
46091;DHT22;31826;53.572;10.170;2023-03-01T16:19:29;7.30;98.90
46091;DHT22;31826;53.572;10.170;2023-03-01T16:21:55;7.20;99.10
46091;DHT22;31826;53.572;10.170;2023-03-01T16:24:20;7.20;99.00
46091;DHT22;31826;53.572;10.170;2023-03-01T16:26:46;7.20;99.10
46091;DHT22;31826;53.572;10.170;2023-03-01T16:29:12;7.00;99.00
46091;DHT22;31826;53.572;10.170;2023-03-01T16:31:37;7.00;99.10
46091;DHT22;31826;53.572;10.170;2023-03-01T16:34:03;6.90;98.90
46091;DHT22;31826;53.572;10.170;2023-03-01T16:36:29;6.80;99.20
46091;DHT22;31826;53.572;10.170;2023-03-01T16:38:57;6.80;99.30
46091;DHT22;31826;53.572;10.170;2023-03-01T16:41:23;6.70;99.60
46091;DHT22;31826;53.572;10.170;2023-03-01T16:43:50;6.60;99.80
46091;DHT22;31826;53.572;10.170;2023-03-01T16:46:25;6.60;99.90
46091;DHT22;31826;53.572;10.170;2023-03-01T16:48:51;6.50;99.90
46091;DHT22;31826;53.572;10.170;2023-03-01T16:51:17;6.50;99.90
46091;DHT22;31826;53.572;10.170;2023-03-01T16:53:43;6.40;99.90
46091;DHT22;31826;53.572;10.170;2023-03-01T16:56:11;6.30;99.90
46091;DHT22;31826;53.572;10.170;2023-03-01T16:58:37;6.20;99.90
46091;DHT22;31826;53.572;10.170;2023-03-01T17:01:08;6.10;99.90
46091;DHT22;31826;53.572;10.170;2023-03-01T17:03:36;6.00;99.90
46091;DHT22;31826;53.572;10.170;2023-03-01T17:06:08;6.00;99.90
46091;DHT22;31826;53.572;10.170;2023-03-01T17:08:34;5.90;99.90
46091;DHT22;31826;53.572;10.170;2023-03-01T17:13:30;5.80;99.90
46091;DHT22;31826;53.572;10.170;2023-03-01T17:15:55;5.60;99.90
46091;DHT22;31826;53.572;10.170;2023-03-01T17:18:21;5.50;99.90
46091;DHT22;31826;53.572;10.170;2023-03-01T17:20:47;5.40;99.90
46091;DHT22;31826;53.572;10.170;2023-03-01T17:23:12;5.40;99.90
46091;DHT22;31826;53.572;10.170;2023-03-01T17:25:42;5.30;99.90
46091;DHT22;31826;53.572;10.170;2023-03-01T17:28:10;5.20;99.90
46091;DHT22;31826;53.572;10.170;2023-03-01T17:30:36;5.20;99.90
46091;DHT22;31826;53.572;10.170;2023-03-01T17:33:02;5.10;99.90
46091;DHT22;31826;53.572;10.170;2023-03-01T17:35:27;5.10;99.90
46091;DHT22;31826;53.572;10.170;2023-03-01T17:37:53;4.90;99.90
46091;DHT22;31826;53.572;10.170;2023-03-01T17:40:19;4.90;99.90
46091;DHT22;31826;53.572;10.170;2023-03-01T17:42:45;4.80;99.90
46091;DHT22;31826;53.572;10.170;2023-03-01T17:45:11;4.60;99.90